CYMA

Mayo Airport

Mayo, , Canada
METAR CYMA 152046Z 34004KT 320V030 20SM SCT040CB BKN063TCU BKN080 14/08 A2979 RMK CB3TCU2AC2 SLP104 DENSITY ALT 2100FT
Observed Flight Rules
Jul-15 @ 20:46 UTC (19 minutes ago) Visual Flight Rules
Wind Visibility Clouds
340° at 4 knots 20 miles
  • Scattered at 4,000' AGL
  • Broken at 6,300' AGL
  • Broken at 8,000' AGL
Temperatures Readings
Current 14°C / 57°F
Dewpoint 8°C / 46°F
Humidity 67%
Altimeter 29.79" Hg
Pressure 1010.4 hPa
Elevation 504
METAR CYMA 152046Z 34004KT 320V030 20SM SCT040CB BKN063TCU BKN080 14/08 A2979 RMK CB3TCU2AC2 SLP104 DENSITY ALT 2100FT
Observed Flight Rules
Jul-15 @ 20:46 UTC
(19 minutes ago)
VFR
Wind Visibility
340° at 4 knots 20 miles
Clouds
  • Scattered at 4,000' AGL
  • Broken at 6,300' AGL
  • Broken at 8,000' AGL
Temperature Dewpoint
14°C / 57°F 8°C / 46°F
Humidity Altimeter Pressure
67% 29.79" Hg 1010.4 hPa